sensor_id;sensor_type;location;lat;lon;timestamp;temperature;humidity
3542;DHT22;1785;47.388;8.538;2024-03-29T00:00:55;10.30;99.90
3542;DHT22;1785;47.388;8.538;2024-03-29T00:03:21;10.40;99.90
3542;DHT22;1785;47.388;8.538;2024-03-29T00:05:47;10.50;99.90
3542;DHT22;1785;47.388;8.538;2024-03-29T00:08:13;10.60;99.90
3542;DHT22;1785;47.388;8.538;2024-03-29T00:10:40;10.50;99.90
3542;DHT22;1785;47.388;8.538;2024-03-29T00:13:06;10.50;99.90
3542;DHT22;1785;47.388;8.538;2024-03-29T00:15:32;10.50;99.90
3542;DHT22;1785;47.388;8.538;2024-03-29T00:17:58;10.40;99.90
3542;DHT22;1785;47.388;8.538;2024-03-29T00:20:24;10.30;99.90
3542;DHT22;1785;47.388;8.538;2024-03-29T00:22:50;10.30;99.90
3542;DHT22;1785;47.388;8.538;2024-03-29T00:25:16;10.30;99.90
3542;DHT22;1785;47.388;8.538;2024-03-29T00:27:43;10.30;99.90
3542;DHT22;1785;47.388;8.538;2024-03-29T00:30:10;10.30;99.90
3542;DHT22;1785;47.388;8.538;2024-03-29T00:32:36;10.20;99.90
3542;DHT22;1785;47.388;8.538;2024-03-29T00:35:03;10.30;99.90
3542;DHT22;1785;47.388;8.538;2024-03-29T00:37:29;10.20;99.90
3542;DHT22;1785;47.388;8.538;2024-03-29T00:39:55;10.10;99.90
3542;DHT22;1785;47.388;8.538;2024-03-29T00:42:21;10.10;99.90
3542;DHT22;1785;47.388;8.538;2024-03-29T00:44:48;10.20;99.90
3542;DHT22;1785;47.388;8.538;2024-03-29T00:47:14;10.20;99.90
3542;DHT22;1785;47.388;8.538;2024-03-29T00:49:40;10.10;99.90
3542;DHT22;1785;47.388;8.538;2024-03-29T00:52:06;10.00;99.90
3542;DHT22;1785;47.388;8.538;2024-03-29T00:54:32;10.10;99.90
3542;DHT22;1785;47.388;8.538;2024-03-29T00:56:59;10.10;99.90
3542;DHT22;1785;47.388;8.538;2024-03-29T00:59:25;10.10;99.90
3542;DHT22;1785;47.388;8.538;2024-03-29T01:01:52;10.00;99.90
3542;DHT22;1785;47.388;8.538;2024-03-29T01:04:18;10.00;99.90
3542;DHT22;1785;47.388;8.538;2024-03-29T01:06:44;10.10;99.90
3542;DHT22;1785;47.388;8.538;2024-03-29T01:09:10;10.20;99.90
3542;DHT22;1785;47.388;8.538;2024-03-29T01:11:36;10.10;99.90
3542;DHT22;1785;47.388;8.538;2024-03-29T01:14:03;10.10;99.90
3542;DHT22;1785;47.388;8.538;2024-03-29T01:16:29;10.20;99.90
3542;DHT22;1785;47.388;8.538;2024-03-29T01:18:56;10.30;99.90
3542;DHT22;1785;47.388;8.538;2024-03-29T01:21:22;10.30;99.90
3542;DHT22;1785;47.388;8.538;2024-03-29T01:23:48;10.30;99.90
3542;DHT22;1785;47.388;8.538;2024-03-29T01:26:15;10.30;99.90
3542;DHT22;1785;47.388;8.538;2024-03-29T01:28:42;10.30;99.90
3542;DHT22;1785;47.388;8.538;2024-03-29T01:31:08;10.30;99.90
3542;DHT22;1785;47.388;8.538;2024-03-29T01:33:34;10.30;99.90
3542;DHT22;1785;47.388;8.538;2024-03-29T01:36:04;10.20;99.90
3542;DHT22;1785;47.388;8.538;2024-03-29T01:38:30;10.10;99.90
3542;DHT22;1785;47.388;8.538;2024-03-29T01:40:56;10.20;99.90
3542;DHT22;1785;47.388;8.538;2024-03-29T01:43:23;9.90;99.90
3542;DHT22;1785;47.388;8.538;2024-03-29T01:45:51;10.10;99.90
3542;DHT22;1785;47.388;8.538;2024-03-29T01:48:19;10.20;99.90
3542;DHT22;1785;47.388;8.538;2024-03-29T01:50:47;10.30;99.90
3542;DHT22;1785;47.388;8.538;2024-03-29T01:53:16;10.30;99.90
3542;DHT22;1785;47.388;8.538;2024-03-29T01:55:43;10.40;99.90
3542;DHT22;1785;47.388;8.538;2024-03-29T01:58:09;10.40;99.90
3542;DHT22;1785;47.388;8.538;2024-03-29T02:00:37;10.40;99.90
3542;DHT22;1785;47.388;8.538;2024-03-29T02:03:05;10.30;99.90
3542;DHT22;1785;47.388;8.538;2024-03-29T02:05:35;9.70;99.90
3542;DHT22;1785;47.388;8.538;2024-03-29T02:08:03;9.40;99.90
3542;DHT22;1785;47.388;8.538;2024-03-29T02:10:31;9.50;99.90
3542;DHT22;1785;47.388;8.538;2024-03-29T02:12:57;9.60;99.90
3542;DHT22;1785;47.388;8.538;2024-03-29T02:15:23;9.20;99.90
3542;DHT22;1785;47.388;8.538;2024-03-29T02:17:49;8.90;99.90
3542;DHT22;1785;47.388;8.538;2024-03-29T02:20:16;8.90;99.90
3542;DHT22;1785;47.388;8.538;2024-03-29T02:22:50;8.90;99.90
3542;DHT22;1785;47.388;8.538;2024-03-29T02:25:18;9.20;99.90
3542;DHT22;1785;47.388;8.538;2024-03-29T02:27:44;9.40;99.90
3542;DHT22;1785;47.388;8.538;2024-03-29T02:30:13;9.70;99.90
3542;DHT22;1785;47.388;8.538;2024-03-29T02:32:40;9.80;99.90
3542;DHT22;1785;47.388;8.538;2024-03-29T02:35:07;9.80;99.90
3542;DHT22;1785;47.388;8.538;2024-03-29T02:37:35;9.30;99.90
3542;DHT22;1785;47.388;8.538;2024-03-29T02:40:01;8.70;99.90
3542;DHT22;1785;47.388;8.538;2024-03-29T02:42:29;8.90;99.90
3542;DHT22;1785;47.388;8.538;2024-03-29T02:44:55;9.20;99.90
3542;DHT22;1785;47.388;8.538;2024-03-29T02:47:21;9.40;99.90
3542;DHT22;1785;47.388;8.538;2024-03-29T02:49:48;8.90;99.90
3542;DHT22;1785;47.388;8.538;2024-03-29T02:52:14;8.50;99.90
3542;DHT22;1785;47.388;8.538;2024-03-29T02:54:40;8.70;99.90
3542;DHT22;1785;47.388;8.538;2024-03-29T02:57:06;8.90;99.90
3542;DHT22;1785;47.388;8.538;2024-03-29T02:59:33;9.20;99.90
3542;DHT22;1785;47.388;8.538;2024-03-29T03:01:59;8.90;99.90
3542;DHT22;1785;47.388;8.538;2024-03-29T03:04:25;8.60;99.90
3542;DHT22;1785;47.388;8.538;2024-03-29T03:06:51;8.70;99.90
3542;DHT22;1785;47.388;8.538;2024-03-29T03:09:17;8.90;99.90
3542;DHT22;1785;47.388;8.538;2024-03-29T03:12:02;8.90;99.90
3542;DHT22;1785;47.388;8.538;2024-03-29T03:14:28;8.60;99.90
3542;DHT22;1785;47.388;8.538;2024-03-29T03:16:55;8.50;99.90
3542;DHT22;1785;47.388;8.538;2024-03-29T03:19:21;8.40;99.90
3542;DHT22;1785;47.388;8.538;2024-03-29T03:21:50;8.60;99.90
3542;DHT22;1785;47.388;8.538;2024-03-29T03:24:16;8.90;99.90
3542;DHT22;1785;47.388;8.538;2024-03-29T03:26:42;9.10;99.90
3542;DHT22;1785;47.388;8.538;2024-03-29T03:29:08;9.20;99.90
3542;DHT22;1785;47.388;8.538;2024-03-29T03:31:35;9.30;99.90
3542;DHT22;1785;47.388;8.538;2024-03-29T03:34:02;9.10;99.90
3542;DHT22;1785;47.388;8.538;2024-03-29T03:36:28;8.70;99.90
3542;DHT22;1785;47.388;8.538;2024-03-29T03:38:54;8.40;99.90
3542;DHT22;1785;47.388;8.538;2024-03-29T03:41:20;8.10;99.90
3542;DHT22;1785;47.388;8.538;2024-03-29T03:43:46;8.30;99.90
3542;DHT22;1785;47.388;8.538;2024-03-29T03:46:12;8.70;99.90
3542;DHT22;1785;47.388;8.538;2024-03-29T03:48:38;9.00;99.90
3542;DHT22;1785;47.388;8.538;2024-03-29T03:51:05;9.30;99.90
3542;DHT22;1785;47.388;8.538;2024-03-29T03:53:31;9.20;99.90
3542;DHT22;1785;47.388;8.538;2024-03-29T03:55:57;9.40;99.90
3542;DHT22;1785;47.388;8.538;2024-03-29T03:58:23;9.40;99.90
3542;DHT22;1785;47.388;8.538;2024-03-29T04:00:50;8.90;99.90
3542;DHT22;1785;47.388;8.538;2024-03-29T04:03:15;8.30;99.90
3542;DHT22;1785;47.388;8.538;2024-03-29T04:05:42;8.50;99.90
3542;DHT22;1785;47.388;8.538;2024-03-29T04:08:09;8.70;99.90
3542;DHT22;1785;47.388;8.538;2024-03-29T04:10:38;8.80;99.90
3542;DHT22;1785;47.388;8.538;2024-03-29T04:13:04;8.80;99.90
3542;DHT22;1785;47.388;8.538;2024-03-29T04:15:30;9.00;99.90
3542;DHT22;1785;47.388;8.538;2024-03-29T04:17:59;8.60;99.90
3542;DHT22;1785;47.388;8.538;2024-03-29T04:20:25;7.90;99.90
3542;DHT22;1785;47.388;8.538;2024-03-29T04:22:51;7.90;99.90
3542;DHT22;1785;47.388;8.538;2024-03-29T04:25:18;8.00;99.90
3542;DHT22;1785;47.388;8.538;2024-03-29T04:27:44;8.30;99.90
3542;DHT22;1785;47.388;8.538;2024-03-29T04:30:11;8.40;99.90
3542;DHT22;1785;47.388;8.538;2024-03-29T04:32:37;8.60;99.90
3542;DHT22;1785;47.388;8.538;2024-03-29T04:35:03;8.80;99.90
3542;DHT22;1785;47.388;8.538;2024-03-29T04:37:29;8.60;99.90
3542;DHT22;1785;47.388;8.538;2024-03-29T04:39:55;8.60;99.90
3542;DHT22;1785;47.388;8.538;2024-03-29T04:42:22;8.50;99.90
3542;DHT22;1785;47.388;8.538;2024-03-29T04:44:48;8.20;99.90
3542;DHT22;1785;47.388;8.538;2024-03-29T04:47:14;8.40;99.90
3542;DHT22;1785;47.388;8.538;2024-03-29T04:49:41;8.40;99.90
3542;DHT22;1785;47.388;8.538;2024-03-29T04:52:07;8.10;99.90
3542;DHT22;1785;47.388;8.538;2024-03-29T04:54:33;8.10;99.90
3542;DHT22;1785;47.388;8.538;2024-03-29T04:57:00;7.80;99.90
3542;DHT22;1785;47.388;8.538;2024-03-29T04:59:27;7.90;99.90
3542;DHT22;1785;47.388;8.538;2024-03-29T05:01:54;7.90;99.90
3542;DHT22;1785;47.388;8.538;2024-03-29T05:04:22;8.00;99.90
3542;DHT22;1785;47.388;8.538;2024-03-29T05:06:51;8.20;99.90
3542;DHT22;1785;47.388;8.538;2024-03-29T05:09:18;8.60;99.90
3542;DHT22;1785;47.388;8.538;2024-03-29T05:11:44;8.80;99.90
3542;DHT22;1785;47.388;8.538;2024-03-29T05:14:12;8.90;99.90
3542;DHT22;1785;47.388;8.538;2024-03-29T05:16:40;9.00;99.90
3542;DHT22;1785;47.388;8.538;2024-03-29T05:19:06;9.30;99.90
3542;DHT22;1785;47.388;8.538;2024-03-29T05:21:32;9.40;99.90
3542;DHT22;1785;47.388;8.538;2024-03-29T05:23:59;9.50;99.90
3542;DHT22;1785;47.388;8.538;2024-03-29T05:26:25;8.90;99.90
3542;DHT22;1785;47.388;8.538;2024-03-29T05:28:51;8.80;99.90
3542;DHT22;1785;47.388;8.538;2024-03-29T05:31:19;8.60;99.90
3542;DHT22;1785;47.388;8.538;2024-03-29T05:33:46;8.70;99.90
3542;DHT22;1785;47.388;8.538;2024-03-29T05:36:12;8.80;99.90
3542;DHT22;1785;47.388;8.538;2024-03-29T05:38:39;8.90;99.90
3542;DHT22;1785;47.388;8.538;2024-03-29T05:41:05;8.60;99.90
3542;DHT22;1785;47.388;8.538;2024-03-29T05:43:31;8.90;99.90
3542;DHT22;1785;47.388;8.538;2024-03-29T05:45:58;9.20;99.90
3542;DHT22;1785;47.388;8.538;2024-03-29T05:48:26;9.30;99.90
3542;DHT22;1785;47.388;8.538;2024-03-29T05:50:52;9.60;99.90
3542;DHT22;1785;47.388;8.538;2024-03-29T05:53:19;9.70;99.90
3542;DHT22;1785;47.388;8.538;2024-03-29T05:55:45;9.40;99.90
3542;DHT22;1785;47.388;8.538;2024-03-29T05:58:11;8.70;99.90
3542;DHT22;1785;47.388;8.538;2024-03-29T06:00:43;8.30;99.90
3542;DHT22;1785;47.388;8.538;2024-03-29T06:03:09;8.40;99.90
3542;DHT22;1785;47.388;8.538;2024-03-29T06:05:36;8.70;99.90
3542;DHT22;1785;47.388;8.538;2024-03-29T06:08:03;8.50;99.90
3542;DHT22;1785;47.388;8.538;2024-03-29T06:10:31;8.60;99.90
3542;DHT22;1785;47.388;8.538;2024-03-29T06:12:57;9.00;99.90
3542;DHT22;1785;47.388;8.538;2024-03-29T06:15:32;9.30;99.90
3542;DHT22;1785;47.388;8.538;2024-03-29T06:18:17;9.60;99.90
3542;DHT22;1785;47.388;8.538;2024-03-29T06:20:44;9.80;99.90
3542;DHT22;1785;47.388;8.538;2024-03-29T06:23:11;9.90;99.90
3542;DHT22;1785;47.388;8.538;2024-03-29T06:25:38;10.10;99.90
3542;DHT22;1785;47.388;8.538;2024-03-29T06:28:05;9.60;99.90
3542;DHT22;1785;47.388;8.538;2024-03-29T06:30:32;9.30;99.90
3542;DHT22;1785;47.388;8.538;2024-03-29T06:32:58;9.50;99.90
3542;DHT22;1785;47.388;8.538;2024-03-29T06:35:27;9.50;99.90
3542;DHT22;1785;47.388;8.538;2024-03-29T06:37:53;9.50;99.90
3542;DHT22;1785;47.388;8.538;2024-03-29T06:40:20;9.50;99.90
3542;DHT22;1785;47.388;8.538;2024-03-29T06:42:46;9.80;99.90
3542;DHT22;1785;47.388;8.538;2024-03-29T06:45:12;10.10;99.90
3542;DHT22;1785;47.388;8.538;2024-03-29T06:47:39;10.30;99.90
3542;DHT22;1785;47.388;8.538;2024-03-29T06:50:06;10.30;99.90
3542;DHT22;1785;47.388;8.538;2024-03-29T06:52:32;9.80;99.90
3542;DHT22;1785;47.388;8.538;2024-03-29T06:54:58;9.70;99.90
3542;DHT22;1785;47.388;8.538;2024-03-29T06:57:25;9.90;99.90
3542;DHT22;1785;47.388;8.538;2024-03-29T06:59:56;10.00;99.90
3542;DHT22;1785;47.388;8.538;2024-03-29T07:02:22;10.00;99.90
3542;DHT22;1785;47.388;8.538;2024-03-29T07:04:49;10.10;99.90
3542;DHT22;1785;47.388;8.538;2024-03-29T07:07:15;10.30;99.90
3542;DHT22;1785;47.388;8.538;2024-03-29T07:09:41;10.30;99.90
3542;DHT22;1785;47.388;8.538;2024-03-29T07:12:07;9.90;99.90
3542;DHT22;1785;47.388;8.538;2024-03-29T07:14:34;10.10;99.90
3542;DHT22;1785;47.388;8.538;2024-03-29T07:17:01;10.10;99.90
3542;DHT22;1785;47.388;8.538;2024-03-29T07:19:27;10.10;99.90
3542;DHT22;1785;47.388;8.538;2024-03-29T07:21:53;10.20;99.90
3542;DHT22;1785;47.388;8.538;2024-03-29T07:24:20;10.50;99.90
3542;DHT22;1785;47.388;8.538;2024-03-29T07:26:46;10.60;99.90
3542;DHT22;1785;47.388;8.538;2024-03-29T07:29:12;10.50;99.90
3542;DHT22;1785;47.388;8.538;2024-03-29T07:31:39;10.80;99.90
3542;DHT22;1785;47.388;8.538;2024-03-29T07:34:06;10.90;99.90
3542;DHT22;1785;47.388;8.538;2024-03-29T07:36:32;10.90;99.90
3542;DHT22;1785;47.388;8.538;2024-03-29T07:39:01;11.20;99.90
3542;DHT22;1785;47.388;8.538;2024-03-29T07:41:29;11.20;99.90
3542;DHT22;1785;47.388;8.538;2024-03-29T07:43:56;11.20;99.90
3542;DHT22;1785;47.388;8.538;2024-03-29T07:46:28;10.80;99.90
3542;DHT22;1785;47.388;8.538;2024-03-29T07:48:55;10.90;99.90
3542;DHT22;1785;47.388;8.538;2024-03-29T07:51:22;11.30;99.90
3542;DHT22;1785;47.388;8.538;2024-03-29T07:53:48;11.30;99.90
3542;DHT22;1785;47.388;8.538;2024-03-29T07:56:14;11.40;99.90
3542;DHT22;1785;47.388;8.538;2024-03-29T07:58:41;11.10;99.90
3542;DHT22;1785;47.388;8.538;2024-03-29T08:01:07;11.10;99.90
3542;DHT22;1785;47.388;8.538;2024-03-29T08:03:33;11.20;99.90
3542;DHT22;1785;47.388;8.538;2024-03-29T08:06:01;11.10;99.90
3542;DHT22;1785;47.388;8.538;2024-03-29T08:08:30;11.10;99.90
3542;DHT22;1785;47.388;8.538;2024-03-29T08:10:56;11.10;99.90
3542;DHT22;1785;47.388;8.538;2024-03-29T08:13:23;11.00;99.90
3542;DHT22;1785;47.388;8.538;2024-03-29T08:15:56;10.80;99.90
3542;DHT22;1785;47.388;8.538;2024-03-29T08:18:23;11.00;99.90
3542;DHT22;1785;47.388;8.538;2024-03-29T08:20:49;11.10;99.90
3542;DHT22;1785;47.388;8.538;2024-03-29T08:23:17;11.10;99.90
3542;DHT22;1785;47.388;8.538;2024-03-29T08:25:43;11.40;99.90
3542;DHT22;1785;47.388;8.538;2024-03-29T08:28:10;11.50;99.90
3542;DHT22;1785;47.388;8.538;2024-03-29T08:30:36;11.30;99.90
3542;DHT22;1785;47.388;8.538;2024-03-29T08:33:03;11.40;99.90
3542;DHT22;1785;47.388;8.538;2024-03-29T08:35:29;11.30;99.90
3542;DHT22;1785;47.388;8.538;2024-03-29T08:37:56;11.40;99.90
3542;DHT22;1785;47.388;8.538;2024-03-29T08:40:23;11.20;99.90
3542;DHT22;1785;47.388;8.538;2024-03-29T08:42:50;11.20;99.90
3542;DHT22;1785;47.388;8.538;2024-03-29T08:45:16;11.50;99.90
3542;DHT22;1785;47.388;8.538;2024-03-29T08:47:42;11.40;99.90
3542;DHT22;1785;47.388;8.538;2024-03-29T08:50:09;11.50;99.90
3542;DHT22;1785;47.388;8.538;2024-03-29T08:52:36;11.80;99.90
3542;DHT22;1785;47.388;8.538;2024-03-29T08:55:06;12.20;99.90
3542;DHT22;1785;47.388;8.538;2024-03-29T08:57:33;12.20;99.90
3542;DHT22;1785;47.388;8.538;2024-03-29T09:00:00;12.40;99.90
3542;DHT22;1785;47.388;8.538;2024-03-29T09:02:26;12.70;99.90
3542;DHT22;1785;47.388;8.538;2024-03-29T09:04:52;12.50;99.90
3542;DHT22;1785;47.388;8.538;2024-03-29T09:07:19;12.40;99.90
3542;DHT22;1785;47.388;8.538;2024-03-29T09:09:48;12.20;99.90
3542;DHT22;1785;47.388;8.538;2024-03-29T09:12:15;12.10;99.90
3542;DHT22;1785;47.388;8.538;2024-03-29T09:14:42;12.40;99.90
3542;DHT22;1785;47.388;8.538;2024-03-29T09:17:09;12.60;99.90
3542;DHT22;1785;47.388;8.538;2024-03-29T09:19:37;12.10;99.90
3542;DHT22;1785;47.388;8.538;2024-03-29T09:22:03;11.90;99.90
3542;DHT22;1785;47.388;8.538;2024-03-29T09:24:31;12.20;99.90
3542;DHT22;1785;47.388;8.538;2024-03-29T09:27:00;12.10;99.90
3542;DHT22;1785;47.388;8.538;2024-03-29T09:29:26;12.20;99.90
3542;DHT22;1785;47.388;8.538;2024-03-29T09:31:53;12.70;99.90
3542;DHT22;1785;47.388;8.538;2024-03-29T09:34:19;13.00;99.90
3542;DHT22;1785;47.388;8.538;2024-03-29T09:36:45;12.60;99.90
3542;DHT22;1785;47.388;8.538;2024-03-29T09:39:12;12.50;99.90
3542;DHT22;1785;47.388;8.538;2024-03-29T09:41:38;12.80;99.90
3542;DHT22;1785;47.388;8.538;2024-03-29T09:44:07;13.10;99.90
3542;DHT22;1785;47.388;8.538;2024-03-29T09:46:34;13.30;99.90
3542;DHT22;1785;47.388;8.538;2024-03-29T09:49:03;13.50;99.90
3542;DHT22;1785;47.388;8.538;2024-03-29T09:51:31;13.20;99.90
3542;DHT22;1785;47.388;8.538;2024-03-29T09:53:59;13.00;99.90
3542;DHT22;1785;47.388;8.538;2024-03-29T09:56:26;13.00;99.90
3542;DHT22;1785;47.388;8.538;2024-03-29T09:58:53;13.40;99.90
3542;DHT22;1785;47.388;8.538;2024-03-29T10:01:20;13.70;99.90
3542;DHT22;1785;47.388;8.538;2024-03-29T10:03:49;14.10;99.90
3542;DHT22;1785;47.388;8.538;2024-03-29T10:06:18;14.30;99.90
3542;DHT22;1785;47.388;8.538;2024-03-29T10:08:45;14.60;99.90
3542;DHT22;1785;47.388;8.538;2024-03-29T10:11:13;14.50;99.90
3542;DHT22;1785;47.388;8.538;2024-03-29T10:13:42;14.40;99.90
3542;DHT22;1785;47.388;8.538;2024-03-29T10:16:09;14.10;99.90
3542;DHT22;1785;47.388;8.538;2024-03-29T10:18:36;14.20;99.90
3542;DHT22;1785;47.388;8.538;2024-03-29T10:21:04;14.30;99.90
3542;DHT22;1785;47.388;8.538;2024-03-29T10:23:33;14.20;99.90
3542;DHT22;1785;47.388;8.538;2024-03-29T10:25:59;14.50;99.90
3542;DHT22;1785;47.388;8.538;2024-03-29T10:28:29;14.90;99.90
3542;DHT22;1785;47.388;8.538;2024-03-29T10:30:57;15.30;99.90
3542;DHT22;1785;47.388;8.538;2024-03-29T10:33:27;15.40;99.90
3542;DHT22;1785;47.388;8.538;2024-03-29T10:35:55;15.40;99.90
3542;DHT22;1785;47.388;8.538;2024-03-29T10:38:24;15.50;99.90
3542;DHT22;1785;47.388;8.538;2024-03-29T10:40:52;15.70;99.90
3542;DHT22;1785;47.388;8.538;2024-03-29T10:43:19;16.00;99.90
3542;DHT22;1785;47.388;8.538;2024-03-29T10:45:46;16.10;99.90
3542;DHT22;1785;47.388;8.538;2024-03-29T10:48:15;16.20;99.90
3542;DHT22;1785;47.388;8.538;2024-03-29T10:50:43;16.20;99.90
3542;DHT22;1785;47.388;8.538;2024-03-29T10:53:10;16.10;99.90
3542;DHT22;1785;47.388;8.538;2024-03-29T10:55:37;16.20;99.90
3542;DHT22;1785;47.388;8.538;2024-03-29T10:58:05;16.30;99.90
3542;DHT22;1785;47.388;8.538;2024-03-29T11:00:33;16.30;99.90
3542;DHT22;1785;47.388;8.538;2024-03-29T11:03:08;16.40;99.90
3542;DHT22;1785;47.388;8.538;2024-03-29T11:05:35;16.40;99.90
3542;DHT22;1785;47.388;8.538;2024-03-29T11:08:06;16.30;99.90
3542;DHT22;1785;47.388;8.538;2024-03-29T11:10:36;16.20;99.90
3542;DHT22;1785;47.388;8.538;2024-03-29T11:13:12;16.30;99.90
3542;DHT22;1785;47.388;8.538;2024-03-29T11:15:45;16.60;99.90
3542;DHT22;1785;47.388;8.538;2024-03-29T11:18:13;16.60;99.90
3542;DHT22;1785;47.388;8.538;2024-03-29T11:20:42;16.70;99.90
3542;DHT22;1785;47.388;8.538;2024-03-29T11:23:14;16.60;99.90
3542;DHT22;1785;47.388;8.538;2024-03-29T11:25:42;16.50;99.90
3542;DHT22;1785;47.388;8.538;2024-03-29T11:28:11;16.60;99.90
3542;DHT22;1785;47.388;8.538;2024-03-29T11:30:42;16.70;99.90
3542;DHT22;1785;47.388;8.538;2024-03-29T11:33:28;16.60;99.90
3542;DHT22;1785;47.388;8.538;2024-03-29T11:35:54;16.70;99.90
3542;DHT22;1785;47.388;8.538;2024-03-29T11:38:21;16.90;99.90
3542;DHT22;1785;47.388;8.538;2024-03-29T11:40:54;17.20;99.90
3542;DHT22;1785;47.388;8.538;2024-03-29T11:43:21;17.50;99.90
3542;DHT22;1785;47.388;8.538;2024-03-29T11:45:50;17.60;99.90
3542;DHT22;1785;47.388;8.538;2024-03-29T11:48:23;17.70;99.90
3542;DHT22;1785;47.388;8.538;2024-03-29T11:50:52;17.80;99.90
3542;DHT22;1785;47.388;8.538;2024-03-29T11:53:18;17.80;99.90
3542;DHT22;1785;47.388;8.538;2024-03-29T11:55:45;17.60;99.90
3542;DHT22;1785;47.388;8.538;2024-03-29T11:58:12;17.60;99.90
3542;DHT22;1785;47.388;8.538;2024-03-29T12:00:39;17.60;99.90
3542;DHT22;1785;47.388;8.538;2024-03-29T12:03:07;17.90;99.90
3542;DHT22;1785;47.388;8.538;2024-03-29T12:05:34;17.70;99.90
3542;DHT22;1785;47.388;8.538;2024-03-29T12:08:01;17.70;99.90
3542;DHT22;1785;47.388;8.538;2024-03-29T12:10:27;17.40;99.90
3542;DHT22;1785;47.388;8.538;2024-03-29T12:12:56;17.30;99.90
3542;DHT22;1785;47.388;8.538;2024-03-29T12:15:23;17.50;99.90
3542;DHT22;1785;47.388;8.538;2024-03-29T12:17:54;17.90;99.90
3542;DHT22;1785;47.388;8.538;2024-03-29T12:20:21;17.90;99.90
3542;DHT22;1785;47.388;8.538;2024-03-29T12:22:47;18.10;99.90
3542;DHT22;1785;47.388;8.538;2024-03-29T12:25:14;18.20;99.90
3542;DHT22;1785;47.388;8.538;2024-03-29T12:27:42;18.50;99.90
3542;DHT22;1785;47.388;8.538;2024-03-29T12:30:10;18.50;99.90
3542;DHT22;1785;47.388;8.538;2024-03-29T12:32:36;18.80;99.90
3542;DHT22;1785;47.388;8.538;2024-03-29T12:35:08;19.00;99.90
3542;DHT22;1785;47.388;8.538;2024-03-29T12:37:35;19.30;99.90
3542;DHT22;1785;47.388;8.538;2024-03-29T12:40:01;19.60;99.90
3542;DHT22;1785;47.388;8.538;2024-03-29T12:42:37;19.50;99.90
3542;DHT22;1785;47.388;8.538;2024-03-29T12:45:04;19.80;99.90
3542;DHT22;1785;47.388;8.538;2024-03-29T12:47:31;19.90;99.90
3542;DHT22;1785;47.388;8.538;2024-03-29T12:49:59;19.80;99.90
3542;DHT22;1785;47.388;8.538;2024-03-29T12:52:26;19.80;99.90
3542;DHT22;1785;47.388;8.538;2024-03-29T12:54:52;19.70;99.90
3542;DHT22;1785;47.388;8.538;2024-03-29T12:57:19;19.60;99.90
3542;DHT22;1785;47.388;8.538;2024-03-29T12:59:45;19.50;99.90
3542;DHT22;1785;47.388;8.538;2024-03-29T13:02:12;19.40;99.90
3542;DHT22;1785;47.388;8.538;2024-03-29T13:04:39;19.50;99.90
3542;DHT22;1785;47.388;8.538;2024-03-29T13:07:09;19.70;99.90
3542;DHT22;1785;47.388;8.538;2024-03-29T13:09:36;19.90;99.90
3542;DHT22;1785;47.388;8.538;2024-03-29T13:12:03;19.90;99.90
3542;DHT22;1785;47.388;8.538;2024-03-29T13:14:29;20.00;99.80
3542;DHT22;1785;47.388;8.538;2024-03-29T13:16:55;20.10;99.40
3542;DHT22;1785;47.388;8.538;2024-03-29T13:19:21;20.00;99.20
3542;DHT22;1785;47.388;8.538;2024-03-29T13:21:48;20.30;99.40
3542;DHT22;1785;47.388;8.538;2024-03-29T13:24:14;20.40;99.20
3542;DHT22;1785;47.388;8.538;2024-03-29T13:26:41;20.50;99.20
3542;DHT22;1785;47.388;8.538;2024-03-29T13:29:07;20.60;98.80
3542;DHT22;1785;47.388;8.538;2024-03-29T13:31:35;20.70;98.20
3542;DHT22;1785;47.388;8.538;2024-03-29T13:34:01;20.70;98.30
3542;DHT22;1785;47.388;8.538;2024-03-29T13:36:37;20.60;98.30
3542;DHT22;1785;47.388;8.538;2024-03-29T13:39:03;20.80;98.00
3542;DHT22;1785;47.388;8.538;2024-03-29T13:41:30;21.20;98.50
3542;DHT22;1785;47.388;8.538;2024-03-29T13:43:57;21.50;97.50
3542;DHT22;1785;47.388;8.538;2024-03-29T13:46:24;21.50;97.10
3542;DHT22;1785;47.388;8.538;2024-03-29T13:48:51;21.30;97.40
3542;DHT22;1785;47.388;8.538;2024-03-29T13:51:17;21.40;97.50
3542;DHT22;1785;47.388;8.538;2024-03-29T13:53:44;21.10;96.60
3542;DHT22;1785;47.388;8.538;2024-03-29T13:56:10;21.10;97.10
3542;DHT22;1785;47.388;8.538;2024-03-29T13:58:36;21.40;97.20
3542;DHT22;1785;47.388;8.538;2024-03-29T14:01:04;21.60;96.70
3542;DHT22;1785;47.388;8.538;2024-03-29T14:03:31;21.60;96.20
3542;DHT22;1785;47.388;8.538;2024-03-29T14:05:57;21.70;96.70
3542;DHT22;1785;47.388;8.538;2024-03-29T14:08:23;21.70;96.30
3542;DHT22;1785;47.388;8.538;2024-03-29T14:10:51;21.50;96.20
3542;DHT22;1785;47.388;8.538;2024-03-29T14:13:18;21.70;96.50
3542;DHT22;1785;47.388;8.538;2024-03-29T14:15:45;21.50;95.50
3542;DHT22;1785;47.388;8.538;2024-03-29T14:18:12;21.40;95.60
3542;DHT22;1785;47.388;8.538;2024-03-29T14:20:39;21.10;95.40
3542;DHT22;1785;47.388;8.538;2024-03-29T14:23:06;21.00;95.30
3542;DHT22;1785;47.388;8.538;2024-03-29T14:25:36;20.90;95.40
3542;DHT22;1785;47.388;8.538;2024-03-29T14:28:03;20.90;95.40
3542;DHT22;1785;47.388;8.538;2024-03-29T14:30:30;20.70;95.10
3542;DHT22;1785;47.388;8.538;2024-03-29T14:32:57;20.50;95.00
3542;DHT22;1785;47.388;8.538;2024-03-29T14:35:24;20.60;95.10
3542;DHT22;1785;47.388;8.538;2024-03-29T14:37:51;20.60;94.60
3542;DHT22;1785;47.388;8.538;2024-03-29T14:40:17;20.40;94.30
3542;DHT22;1785;47.388;8.538;2024-03-29T14:42:44;20.40;94.30
3542;DHT22;1785;47.388;8.538;2024-03-29T14:45:11;20.40;94.30
3542;DHT22;1785;47.388;8.538;2024-03-29T14:47:37;20.30;93.90
3542;DHT22;1785;47.388;8.538;2024-03-29T14:50:04;20.10;93.50
3542;DHT22;1785;47.388;8.538;2024-03-29T14:52:34;20.20;93.50
3542;DHT22;1785;47.388;8.538;2024-03-29T14:55:00;20.20;93.10
3542;DHT22;1785;47.388;8.538;2024-03-29T14:57:27;20.10;93.20
3542;DHT22;1785;47.388;8.538;2024-03-29T14:59:53;20.10;93.10
3542;DHT22;1785;47.388;8.538;2024-03-29T15:02:20;20.20;93.20
3542;DHT22;1785;47.388;8.538;2024-03-29T15:04:46;20.30;93.30
3542;DHT22;1785;47.388;8.538;2024-03-29T15:07:12;20.20;92.90
3542;DHT22;1785;47.388;8.538;2024-03-29T15:09:39;20.30;93.10
3542;DHT22;1785;47.388;8.538;2024-03-29T15:12:06;20.40;92.90
3542;DHT22;1785;47.388;8.538;2024-03-29T15:14:34;20.60;92.70
3542;DHT22;1785;47.388;8.538;2024-03-29T15:17:01;20.70;92.60
3542;DHT22;1785;47.388;8.538;2024-03-29T15:19:28;20.70;92.50
3542;DHT22;1785;47.388;8.538;2024-03-29T15:21:54;20.50;92.40
3542;DHT22;1785;47.388;8.538;2024-03-29T15:24:21;20.60;92.20
3542;DHT22;1785;47.388;8.538;2024-03-29T15:26:48;20.50;92.70
3542;DHT22;1785;47.388;8.538;2024-03-29T15:29:17;20.70;93.00
3542;DHT22;1785;47.388;8.538;2024-03-29T15:31:44;20.70;93.50
3542;DHT22;1785;47.388;8.538;2024-03-29T15:34:11;20.80;92.90
3542;DHT22;1785;47.388;8.538;2024-03-29T15:36:39;20.80;92.40
3542;DHT22;1785;47.388;8.538;2024-03-29T15:39:05;20.90;92.50
3542;DHT22;1785;47.388;8.538;2024-03-29T15:41:34;21.10;93.60
3542;DHT22;1785;47.388;8.538;2024-03-29T15:44:01;21.10;93.40
3542;DHT22;1785;47.388;8.538;2024-03-29T15:46:28;21.00;92.50
3542;DHT22;1785;47.388;8.538;2024-03-29T15:48:55;21.00;92.30
3542;DHT22;1785;47.388;8.538;2024-03-29T15:51:21;20.60;91.90
3542;DHT22;1785;47.388;8.538;2024-03-29T15:53:48;20.70;92.00
3542;DHT22;1785;47.388;8.538;2024-03-29T15:56:14;20.80;91.90
3542;DHT22;1785;47.388;8.538;2024-03-29T15:58:40;20.90;91.80
3542;DHT22;1785;47.388;8.538;2024-03-29T16:01:08;20.90;92.20
3542;DHT22;1785;47.388;8.538;2024-03-29T16:03:35;20.70;91.70
3542;DHT22;1785;47.388;8.538;2024-03-29T16:06:01;20.50;92.00